الصفحة الرئيسية
METAR-TAF:

METAR-TAF

مطار :

Nii Ōshima, اليابان

دائرة عرض: 34-47N, خط طول: 139-22E, ارتفاع: 38 متر

مراقبة الطقس الحالي

تاريخ ووقت الإصدار 28 دقيقة قبل الساعة 05:00UTC
ريح 4 عقدة من الغرب/الجنوب الغربي, الاتجاه يتراوح بين الجنوب و الغرب/الشمال الغربي
درجة الحرارة 25°درجة مئوية
الرطوبة 89%
ضغط 1015 hPa
الرؤية 10 كم أو أكثر
غيوم قليلة على ارتفاع 600 قدم
غيوم مفككة على ارتفاع 1000 قدم

METAR: RJTO 160500Z 24004KT 180V290 9999 FEW006 BKN010 25/23 Q1015

زمن: 14:28 (05:28 UTC)


TAF: مفقودة

أرصاد الطقس والتوقعات من أكثر من 4000 مطار (تقارير الطقس للمطار METAR والتنبؤ بالطقس بالمطارTAF).

المحطات المتاحة هي النقط الصفراء والحمراء على الخريطة.

حرك المؤشر فوق النقطة لمعرفة اسم المحطة.

ثم انقر لمعرفة أرصاد وتوقعات الطقس.

لتغيير الخارطة: اضغط على الأزرار الخضراء مع رمز الصليب الأسود للتكبير. على الزر الأخضر مع شرطة للتصغير، أو على الأسهم الخضراء للخرائط المجاورة.


METAR-TAF: